sensor_id;sensor_type;location;lat;lon;timestamp;P1;durP1;ratioP1;P2;durP2;ratioP2
68432;SDS011;55412;51.350;17.056;2023-08-12T00:00:36;5.60;;;2.53;;
68432;SDS011;55412;51.350;17.056;2023-08-12T00:03:03;6.47;;;2.60;;
68432;SDS011;55412;51.350;17.056;2023-08-12T00:05:29;6.28;;;2.60;;
68432;SDS011;55412;51.350;17.056;2023-08-12T00:07:55;7.93;;;3.33;;
68432;SDS011;55412;51.350;17.056;2023-08-12T00:10:21;6.70;;;3.00;;
68432;SDS011;55412;51.350;17.056;2023-08-12T00:12:48;7.72;;;2.75;;
68432;SDS011;55412;51.350;17.056;2023-08-12T00:15:14;6.55;;;2.88;;
68432;SDS011;55412;51.350;17.056;2023-08-12T00:17:40;7.35;;;3.00;;
68432;SDS011;55412;51.350;17.056;2023-08-12T00:20:06;6.70;;;2.63;;
68432;SDS011;55412;51.350;17.056;2023-08-12T00:22:36;6.20;;;3.05;;
68432;SDS011;55412;51.350;17.056;2023-08-12T00:25:03;6.63;;;2.53;;
68432;SDS011;55412;51.350;17.056;2023-08-12T00:27:31;5.97;;;3.38;;
68432;SDS011;55412;51.350;17.056;2023-08-12T00:29:57;6.20;;;3.53;;
68432;SDS011;55412;51.350;17.056;2023-08-12T00:32:23;5.63;;;3.20;;
68432;SDS011;55412;51.350;17.056;2023-08-12T00:34:49;7.38;;;3.40;;
68432;SDS011;55412;51.350;17.056;2023-08-12T00:37:16;7.43;;;3.53;;
68432;SDS011;55412;51.350;17.056;2023-08-12T00:39:42;9.40;;;3.10;;
68432;SDS011;55412;51.350;17.056;2023-08-12T00:42:08;6.90;;;2.95;;
68432;SDS011;55412;51.350;17.056;2023-08-12T00:44:35;5.90;;;3.00;;
68432;SDS011;55412;51.350;17.056;2023-08-12T00:47:01;8.35;;;3.22;;
68432;SDS011;55412;51.350;17.056;2023-08-12T00:49:27;7.97;;;2.92;;
68432;SDS011;55412;51.350;17.056;2023-08-12T00:51:54;7.63;;;2.97;;
68432;SDS011;55412;51.350;17.056;2023-08-12T00:54:20;5.75;;;2.72;;
68432;SDS011;55412;51.350;17.056;2023-08-12T00:56:48;6.67;;;2.80;;
68432;SDS011;55412;51.350;17.056;2023-08-12T00:59:15;6.68;;;2.88;;
68432;SDS011;55412;51.350;17.056;2023-08-12T01:01:43;7.38;;;2.85;;
68432;SDS011;55412;51.350;17.056;2023-08-12T01:04:10;7.00;;;3.10;;
68432;SDS011;55412;51.350;17.056;2023-08-12T01:06:36;6.40;;;2.65;;
68432;SDS011;55412;51.350;17.056;2023-08-12T01:09:03;6.87;;;2.87;;
68432;SDS011;55412;51.350;17.056;2023-08-12T01:14:12;5.78;;;2.60;;
68432;SDS011;55412;51.350;17.056;2023-08-12T01:19:29;7.15;;;3.13;;
68432;SDS011;55412;51.350;17.056;2023-08-12T01:22:05;6.97;;;3.07;;
68432;SDS011;55412;51.350;17.056;2023-08-12T01:24:36;6.90;;;2.95;;
68432;SDS011;55412;51.350;17.056;2023-08-12T01:27:07;6.35;;;3.40;;
68432;SDS011;55412;51.350;17.056;2023-08-12T01:29:54;5.82;;;3.00;;
68432;SDS011;55412;51.350;17.056;2023-08-12T01:32:23;7.15;;;2.70;;
68432;SDS011;55412;51.350;17.056;2023-08-12T01:38:12;8.95;;;2.90;;
68432;SDS011;55412;51.350;17.056;2023-08-12T01:40:38;9.18;;;3.58;;
68432;SDS011;55412;51.350;17.056;2023-08-12T01:43:05;5.15;;;2.75;;
68432;SDS011;55412;51.350;17.056;2023-08-12T01:45:33;6.82;;;2.95;;
68432;SDS011;55412;51.350;17.056;2023-08-12T01:48:00;5.27;;;2.70;;
68432;SDS011;55412;51.350;17.056;2023-08-12T01:50:27;6.32;;;2.85;;
68432;SDS011;55412;51.350;17.056;2023-08-12T01:52:53;7.20;;;3.20;;
68432;SDS011;55412;51.350;17.056;2023-08-12T01:55:19;7.60;;;3.05;;
68432;SDS011;55412;51.350;17.056;2023-08-12T01:57:45;4.88;;;2.80;;
68432;SDS011;55412;51.350;17.056;2023-08-12T02:00:12;6.23;;;3.20;;
68432;SDS011;55412;51.350;17.056;2023-08-12T02:02:38;5.88;;;3.15;;
68432;SDS011;55412;51.350;17.056;2023-08-12T02:05:04;9.00;;;3.45;;
68432;SDS011;55412;51.350;17.056;2023-08-12T02:07:31;5.90;;;2.67;;
68432;SDS011;55412;51.350;17.056;2023-08-12T02:09:57;6.32;;;3.30;;
68432;SDS011;55412;51.350;17.056;2023-08-12T02:12:23;6.30;;;2.60;;
68432;SDS011;55412;51.350;17.056;2023-08-12T02:14:49;7.32;;;3.25;;
68432;SDS011;55412;51.350;17.056;2023-08-12T02:17:15;9.05;;;3.40;;
68432;SDS011;55412;51.350;17.056;2023-08-12T02:19:42;6.03;;;2.92;;
68432;SDS011;55412;51.350;17.056;2023-08-12T02:22:08;5.40;;;2.95;;
68432;SDS011;55412;51.350;17.056;2023-08-12T02:24:35;6.43;;;2.90;;
68432;SDS011;55412;51.350;17.056;2023-08-12T02:27:01;6.53;;;3.22;;
68432;SDS011;55412;51.350;17.056;2023-08-12T02:29:28;6.82;;;2.88;;
68432;SDS011;55412;51.350;17.056;2023-08-12T02:31:54;6.13;;;2.75;;
68432;SDS011;55412;51.350;17.056;2023-08-12T02:34:20;7.45;;;3.17;;
68432;SDS011;55412;51.350;17.056;2023-08-12T02:36:46;6.30;;;2.87;;
68432;SDS011;55412;51.350;17.056;2023-08-12T02:39:12;5.05;;;2.88;;
68432;SDS011;55412;51.350;17.056;2023-08-12T02:41:39;8.30;;;3.38;;
68432;SDS011;55412;51.350;17.056;2023-08-12T02:44:05;9.10;;;2.42;;
68432;SDS011;55412;51.350;17.056;2023-08-12T02:46:31;5.28;;;2.97;;
68432;SDS011;55412;51.350;17.056;2023-08-12T02:48:57;6.83;;;2.63;;
68432;SDS011;55412;51.350;17.056;2023-08-12T02:51:23;9.82;;;3.08;;
68432;SDS011;55412;51.350;17.056;2023-08-12T02:53:49;6.30;;;3.05;;
68432;SDS011;55412;51.350;17.056;2023-08-12T02:56:16;6.93;;;2.60;;
68432;SDS011;55412;51.350;17.056;2023-08-12T02:58:42;6.93;;;2.83;;
68432;SDS011;55412;51.350;17.056;2023-08-12T03:01:08;5.17;;;2.80;;
68432;SDS011;55412;51.350;17.056;2023-08-12T03:03:34;13.52;;;3.22;;
68432;SDS011;55412;51.350;17.056;2023-08-12T03:06:00;6.47;;;3.05;;
68432;SDS011;55412;51.350;17.056;2023-08-12T03:08:26;6.25;;;2.42;;
68432;SDS011;55412;51.350;17.056;2023-08-12T03:11:02;6.15;;;3.17;;
68432;SDS011;55412;51.350;17.056;2023-08-12T03:13:29;6.70;;;2.90;;
68432;SDS011;55412;51.350;17.056;2023-08-12T03:15:55;8.10;;;3.25;;
68432;SDS011;55412;51.350;17.056;2023-08-12T03:18:22;7.15;;;2.90;;
68432;SDS011;55412;51.350;17.056;2023-08-12T03:20:48;5.85;;;2.80;;
68432;SDS011;55412;51.350;17.056;2023-08-12T03:23:15;8.20;;;3.55;;
68432;SDS011;55412;51.350;17.056;2023-08-12T03:25:41;5.50;;;2.83;;
68432;SDS011;55412;51.350;17.056;2023-08-12T03:28:07;5.95;;;3.28;;
68432;SDS011;55412;51.350;17.056;2023-08-12T03:30:34;9.82;;;3.45;;
68432;SDS011;55412;51.350;17.056;2023-08-12T03:33:00;6.60;;;2.97;;
68432;SDS011;55412;51.350;17.056;2023-08-12T03:35:26;12.25;;;3.10;;
68432;SDS011;55412;51.350;17.056;2023-08-12T03:37:52;5.57;;;2.50;;
68432;SDS011;55412;51.350;17.056;2023-08-12T03:40:19;6.88;;;3.08;;
68432;SDS011;55412;51.350;17.056;2023-08-12T03:42:45;7.15;;;3.35;;
68432;SDS011;55412;51.350;17.056;2023-08-12T03:45:11;6.05;;;3.00;;
68432;SDS011;55412;51.350;17.056;2023-08-12T03:47:38;5.78;;;3.72;;
68432;SDS011;55412;51.350;17.056;2023-08-12T03:50:04;7.90;;;3.20;;
68432;SDS011;55412;51.350;17.056;2023-08-12T03:52:31;7.10;;;3.45;;
68432;SDS011;55412;51.350;17.056;2023-08-12T03:54:57;6.03;;;3.63;;
68432;SDS011;55412;51.350;17.056;2023-08-12T03:57:23;8.35;;;3.17;;
68432;SDS011;55412;51.350;17.056;2023-08-12T03:59:49;6.88;;;3.50;;
68432;SDS011;55412;51.350;17.056;2023-08-12T04:02:15;6.23;;;2.80;;
68432;SDS011;55412;51.350;17.056;2023-08-12T04:04:42;6.47;;;3.10;;
68432;SDS011;55412;51.350;17.056;2023-08-12T04:07:09;8.18;;;3.45;;
68432;SDS011;55412;51.350;17.056;2023-08-12T04:09:38;5.43;;;3.10;;
68432;SDS011;55412;51.350;17.056;2023-08-12T04:12:04;6.43;;;3.30;;
68432;SDS011;55412;51.350;17.056;2023-08-12T04:14:30;6.20;;;3.13;;
68432;SDS011;55412;51.350;17.056;2023-08-12T04:16:56;5.32;;;2.75;;
68432;SDS011;55412;51.350;17.056;2023-08-12T04:19:22;5.57;;;3.13;;
68432;SDS011;55412;51.350;17.056;2023-08-12T04:21:48;6.85;;;2.78;;
68432;SDS011;55412;51.350;17.056;2023-08-12T04:24:15;5.47;;;2.95;;
68432;SDS011;55412;51.350;17.056;2023-08-12T04:26:41;9.30;;;3.07;;
68432;SDS011;55412;51.350;17.056;2023-08-12T04:29:07;10.57;;;3.00;;
68432;SDS011;55412;51.350;17.056;2023-08-12T04:31:33;7.03;;;2.90;;
68432;SDS011;55412;51.350;17.056;2023-08-12T04:33:59;5.95;;;3.40;;
68432;SDS011;55412;51.350;17.056;2023-08-12T04:36:25;7.15;;;2.92;;
68432;SDS011;55412;51.350;17.056;2023-08-12T04:38:52;6.57;;;3.03;;
68432;SDS011;55412;51.350;17.056;2023-08-12T04:41:18;8.23;;;2.90;;
68432;SDS011;55412;51.350;17.056;2023-08-12T04:43:44;5.90;;;3.17;;
68432;SDS011;55412;51.350;17.056;2023-08-12T04:46:10;7.28;;;2.97;;
68432;SDS011;55412;51.350;17.056;2023-08-12T04:48:36;7.80;;;3.10;;
68432;SDS011;55412;51.350;17.056;2023-08-12T04:51:04;6.73;;;3.17;;
68432;SDS011;55412;51.350;17.056;2023-08-12T04:53:31;5.82;;;2.75;;
68432;SDS011;55412;51.350;17.056;2023-08-12T04:55:58;7.65;;;3.15;;
68432;SDS011;55412;51.350;17.056;2023-08-12T04:58:25;6.97;;;3.08;;
68432;SDS011;55412;51.350;17.056;2023-08-12T05:00:51;7.25;;;3.20;;
68432;SDS011;55412;51.350;17.056;2023-08-12T05:03:17;4.77;;;2.60;;
68432;SDS011;55412;51.350;17.056;2023-08-12T05:05:43;6.55;;;2.97;;
68432;SDS011;55412;51.350;17.056;2023-08-12T05:08:15;9.45;;;3.03;;
68432;SDS011;55412;51.350;17.056;2023-08-12T05:10:41;5.55;;;2.95;;
68432;SDS011;55412;51.350;17.056;2023-08-12T05:13:07;7.82;;;3.10;;
68432;SDS011;55412;51.350;17.056;2023-08-12T05:15:33;6.90;;;3.33;;
68432;SDS011;55412;51.350;17.056;2023-08-12T05:18:01;7.22;;;2.97;;
68432;SDS011;55412;51.350;17.056;2023-08-12T05:20:28;7.05;;;2.60;;
68432;SDS011;55412;51.350;17.056;2023-08-12T05:22:54;6.05;;;2.95;;
68432;SDS011;55412;51.350;17.056;2023-08-12T05:25:20;7.70;;;2.63;;
68432;SDS011;55412;51.350;17.056;2023-08-12T05:27:46;4.77;;;2.70;;
68432;SDS011;55412;51.350;17.056;2023-08-12T05:30:13;5.70;;;2.67;;
68432;SDS011;55412;51.350;17.056;2023-08-12T05:32:39;8.63;;;2.85;;
68432;SDS011;55412;51.350;17.056;2023-08-12T05:35:05;6.22;;;3.05;;
68432;SDS011;55412;51.350;17.056;2023-08-12T05:37:32;6.80;;;3.63;;
68432;SDS011;55412;51.350;17.056;2023-08-12T05:39:58;6.80;;;2.73;;
68432;SDS011;55412;51.350;17.056;2023-08-12T05:42:24;5.10;;;2.85;;
68432;SDS011;55412;51.350;17.056;2023-08-12T05:44:51;6.70;;;3.33;;
68432;SDS011;55412;51.350;17.056;2023-08-12T05:47:17;8.50;;;3.28;;
68432;SDS011;55412;51.350;17.056;2023-08-12T05:49:43;6.45;;;3.40;;
68432;SDS011;55412;51.350;17.056;2023-08-12T05:52:10;8.93;;;3.50;;
68432;SDS011;55412;51.350;17.056;2023-08-12T05:54:40;6.65;;;2.80;;
68432;SDS011;55412;51.350;17.056;2023-08-12T05:57:09;6.60;;;3.58;;
68432;SDS011;55412;51.350;17.056;2023-08-12T05:59:51;5.68;;;2.80;;
68432;SDS011;55412;51.350;17.056;2023-08-12T06:02:17;8.02;;;4.85;;
68432;SDS011;55412;51.350;17.056;2023-08-12T06:04:44;10.00;;;3.87;;
68432;SDS011;55412;51.350;17.056;2023-08-12T06:07:13;6.90;;;3.45;;
68432;SDS011;55412;51.350;17.056;2023-08-12T06:09:39;7.43;;;3.33;;
68432;SDS011;55412;51.350;17.056;2023-08-12T06:12:13;5.55;;;2.78;;
68432;SDS011;55412;51.350;17.056;2023-08-12T06:14:39;6.57;;;2.72;;
68432;SDS011;55412;51.350;17.056;2023-08-12T06:17:05;5.17;;;2.43;;
68432;SDS011;55412;51.350;17.056;2023-08-12T06:19:32;5.32;;;3.05;;
68432;SDS011;55412;51.350;17.056;2023-08-12T06:22:01;6.47;;;2.85;;
68432;SDS011;55412;51.350;17.056;2023-08-12T06:24:28;5.07;;;2.30;;
68432;SDS011;55412;51.350;17.056;2023-08-12T06:26:54;5.65;;;2.80;;
68432;SDS011;55412;51.350;17.056;2023-08-12T06:29:20;7.30;;;2.23;;
68432;SDS011;55412;51.350;17.056;2023-08-12T06:31:46;5.82;;;2.75;;
68432;SDS011;55412;51.350;17.056;2023-08-12T06:34:13;5.22;;;2.63;;
68432;SDS011;55412;51.350;17.056;2023-08-12T06:36:39;5.82;;;2.75;;
68432;SDS011;55412;51.350;17.056;2023-08-12T06:39:05;4.78;;;2.33;;
68432;SDS011;55412;51.350;17.056;2023-08-12T06:41:31;6.40;;;2.03;;
68432;SDS011;55412;51.350;17.056;2023-08-12T06:43:57;4.45;;;2.25;;
68432;SDS011;55412;51.350;17.056;2023-08-12T06:46:23;3.95;;;2.58;;
68432;SDS011;55412;51.350;17.056;2023-08-12T06:48:50;5.57;;;2.50;;
68432;SDS011;55412;51.350;17.056;2023-08-12T06:51:16;6.40;;;2.25;;
68432;SDS011;55412;51.350;17.056;2023-08-12T06:53:42;5.17;;;2.00;;
68432;SDS011;55412;51.350;17.056;2023-08-12T06:56:08;5.25;;;2.17;;
68432;SDS011;55412;51.350;17.056;2023-08-12T06:58:34;6.45;;;2.55;;
68432;SDS011;55412;51.350;17.056;2023-08-12T07:01:00;5.15;;;2.15;;
68432;SDS011;55412;51.350;17.056;2023-08-12T07:03:27;4.43;;;2.17;;
68432;SDS011;55412;51.350;17.056;2023-08-12T07:05:53;5.67;;;2.17;;
68432;SDS011;55412;51.350;17.056;2023-08-12T07:08:20;5.00;;;2.00;;
68432;SDS011;55412;51.350;17.056;2023-08-12T07:10:46;6.03;;;2.35;;
68432;SDS011;55412;51.350;17.056;2023-08-12T07:13:12;4.03;;;1.63;;
68432;SDS011;55412;51.350;17.056;2023-08-12T07:15:38;4.75;;;2.22;;
68432;SDS011;55412;51.350;17.056;2023-08-12T07:18:04;5.27;;;2.93;;
68432;SDS011;55412;51.350;17.056;2023-08-12T07:20:31;5.00;;;1.95;;
68432;SDS011;55412;51.350;17.056;2023-08-12T07:22:58;5.70;;;2.08;;
68432;SDS011;55412;51.350;17.056;2023-08-12T07:25:24;6.35;;;2.42;;
68432;SDS011;55412;51.350;17.056;2023-08-12T07:27:50;5.35;;;2.70;;
68432;SDS011;55412;51.350;17.056;2023-08-12T07:30:16;5.30;;;2.57;;
68432;SDS011;55412;51.350;17.056;2023-08-12T07:32:42;5.43;;;2.67;;
68432;SDS011;55412;51.350;17.056;2023-08-12T07:35:11;4.10;;;2.42;;
68432;SDS011;55412;51.350;17.056;2023-08-12T07:37:37;5.50;;;2.15;;
68432;SDS011;55412;51.350;17.056;2023-08-12T07:40:03;6.07;;;2.65;;
68432;SDS011;55412;51.350;17.056;2023-08-12T07:42:30;6.07;;;1.77;;
68432;SDS011;55412;51.350;17.056;2023-08-12T07:44:57;6.60;;;2.15;;
68432;SDS011;55412;51.350;17.056;2023-08-12T07:47:23;7.93;;;2.22;;
68432;SDS011;55412;51.350;17.056;2023-08-12T07:49:49;5.90;;;2.47;;
68432;SDS011;55412;51.350;17.056;2023-08-12T07:52:15;4.43;;;2.67;;
68432;SDS011;55412;51.350;17.056;2023-08-12T07:54:41;6.17;;;2.27;;
68432;SDS011;55412;51.350;17.056;2023-08-12T07:57:07;7.65;;;2.47;;
68432;SDS011;55412;51.350;17.056;2023-08-12T07:59:37;8.15;;;2.55;;
68432;SDS011;55412;51.350;17.056;2023-08-12T08:02:03;4.63;;;2.03;;
68432;SDS011;55412;51.350;17.056;2023-08-12T08:04:29;7.50;;;2.72;;
68432;SDS011;55412;51.350;17.056;2023-08-12T08:06:55;6.63;;;2.87;;
68432;SDS011;55412;51.350;17.056;2023-08-12T08:09:21;5.68;;;2.30;;
68432;SDS011;55412;51.350;17.056;2023-08-12T08:11:47;5.25;;;2.47;;
68432;SDS011;55412;51.350;17.056;2023-08-12T08:14:13;3.80;;;2.08;;
68432;SDS011;55412;51.350;17.056;2023-08-12T08:16:40;12.48;;;2.85;;
68432;SDS011;55412;51.350;17.056;2023-08-12T08:19:06;5.03;;;2.00;;
68432;SDS011;55412;51.350;17.056;2023-08-12T08:21:35;4.82;;;2.38;;
68432;SDS011;55412;51.350;17.056;2023-08-12T08:24:01;5.88;;;2.53;;
68432;SDS011;55412;51.350;17.056;2023-08-12T08:26:28;4.40;;;2.22;;
68432;SDS011;55412;51.350;17.056;2023-08-12T08:28:54;4.97;;;2.70;;
68432;SDS011;55412;51.350;17.056;2023-08-12T08:31:20;6.93;;;2.43;;
68432;SDS011;55412;51.350;17.056;2023-08-12T08:33:46;6.85;;;2.60;;
68432;SDS011;55412;51.350;17.056;2023-08-12T08:36:12;5.63;;;2.95;;
68432;SDS011;55412;51.350;17.056;2023-08-12T08:38:38;4.15;;;2.10;;
68432;SDS011;55412;51.350;17.056;2023-08-12T08:41:05;7.07;;;2.00;;
68432;SDS011;55412;51.350;17.056;2023-08-12T08:43:35;4.43;;;1.93;;
68432;SDS011;55412;51.350;17.056;2023-08-12T08:46:04;5.63;;;2.30;;
68432;SDS011;55412;51.350;17.056;2023-08-12T08:48:31;4.85;;;2.72;;
68432;SDS011;55412;51.350;17.056;2023-08-12T08:50:59;4.68;;;2.53;;
68432;SDS011;55412;51.350;17.056;2023-08-12T08:53:27;5.90;;;1.95;;
68432;SDS011;55412;51.350;17.056;2023-08-12T08:55:53;6.40;;;2.30;;
68432;SDS011;55412;51.350;17.056;2023-08-12T08:58:20;5.93;;;2.15;;
68432;SDS011;55412;51.350;17.056;2023-08-12T09:00:47;4.20;;;2.13;;
68432;SDS011;55412;51.350;17.056;2023-08-12T09:03:13;4.38;;;2.05;;
68432;SDS011;55412;51.350;17.056;2023-08-12T09:05:40;4.63;;;1.98;;
68432;SDS011;55412;51.350;17.056;2023-08-12T09:08:08;7.87;;;2.30;;
68432;SDS011;55412;51.350;17.056;2023-08-12T09:10:36;6.15;;;1.88;;
68432;SDS011;55412;51.350;17.056;2023-08-12T09:13:06;4.85;;;1.85;;
68432;SDS011;55412;51.350;17.056;2023-08-12T09:15:34;4.50;;;1.77;;
68432;SDS011;55412;51.350;17.056;2023-08-12T09:18:00;5.57;;;2.22;;
68432;SDS011;55412;51.350;17.056;2023-08-12T09:20:27;5.57;;;1.57;;
68432;SDS011;55412;51.350;17.056;2023-08-12T09:22:57;5.95;;;2.25;;
68432;SDS011;55412;51.350;17.056;2023-08-12T09:25:24;7.70;;;2.60;;
68432;SDS011;55412;51.350;17.056;2023-08-12T09:27:53;4.30;;;2.00;;
68432;SDS011;55412;51.350;17.056;2023-08-12T09:30:29;6.03;;;2.60;;
68432;SDS011;55412;51.350;17.056;2023-08-12T09:33:02;5.40;;;2.03;;
68432;SDS011;55412;51.350;17.056;2023-08-12T09:35:37;5.43;;;2.00;;
68432;SDS011;55412;51.350;17.056;2023-08-12T09:38:06;4.60;;;2.45;;
68432;SDS011;55412;51.350;17.056;2023-08-12T09:40:36;5.97;;;1.88;;
68432;SDS011;55412;51.350;17.056;2023-08-12T09:43:03;4.18;;;2.10;;
68432;SDS011;55412;51.350;17.056;2023-08-12T09:45:30;5.37;;;2.60;;
68432;SDS011;55412;51.350;17.056;2023-08-12T09:48:00;7.78;;;1.83;;
68432;SDS011;55412;51.350;17.056;2023-08-12T09:50:28;5.65;;;2.05;;
68432;SDS011;55412;51.350;17.056;2023-08-12T09:52:55;5.65;;;2.35;;
68432;SDS011;55412;51.350;17.056;2023-08-12T09:55:22;6.53;;;2.72;;
68432;SDS011;55412;51.350;17.056;2023-08-12T09:57:53;5.23;;;2.10;;
68432;SDS011;55412;51.350;17.056;2023-08-12T10:00:21;4.88;;;1.80;;
68432;SDS011;55412;51.350;17.056;2023-08-12T10:02:49;4.95;;;2.10;;
68432;SDS011;55412;51.350;17.056;2023-08-12T10:05:37;5.78;;;1.60;;
68432;SDS011;55412;51.350;17.056;2023-08-12T10:08:03;4.78;;;2.28;;
68432;SDS011;55412;51.350;17.056;2023-08-12T10:10:32;5.30;;;1.87;;
68432;SDS011;55412;51.350;17.056;2023-08-12T10:13:00;3.85;;;1.20;;
68432;SDS011;55412;51.350;17.056;2023-08-12T10:15:27;3.78;;;1.98;;
68432;SDS011;55412;51.350;17.056;2023-08-12T10:17:55;5.55;;;2.40;;
68432;SDS011;55412;51.350;17.056;2023-08-12T10:20:24;5.40;;;1.50;;
68432;SDS011;55412;51.350;17.056;2023-08-12T10:22:51;4.03;;;1.60;;
68432;SDS011;55412;51.350;17.056;2023-08-12T10:25:18;4.10;;;2.42;;
68432;SDS011;55412;51.350;17.056;2023-08-12T10:27:48;4.43;;;1.85;;
68432;SDS011;55412;51.350;17.056;2023-08-12T10:30:15;5.68;;;1.98;;
68432;SDS011;55412;51.350;17.056;2023-08-12T10:32:42;6.60;;;2.38;;
68432;SDS011;55412;51.350;17.056;2023-08-12T10:35:08;8.37;;;2.00;;
68432;SDS011;55412;51.350;17.056;2023-08-12T10:37:35;5.38;;;1.90;;
68432;SDS011;55412;51.350;17.056;2023-08-12T10:40:05;5.60;;;2.13;;
68432;SDS011;55412;51.350;17.056;2023-08-12T10:42:48;4.13;;;1.83;;
68432;SDS011;55412;51.350;17.056;2023-08-12T10:45:16;4.03;;;2.20;;
68432;SDS011;55412;51.350;17.056;2023-08-12T10:50:36;4.05;;;1.80;;
68432;SDS011;55412;51.350;17.056;2023-08-12T10:55:55;5.25;;;1.92;;
68432;SDS011;55412;51.350;17.056;2023-08-12T10:58:24;4.85;;;1.88;;
68432;SDS011;55412;51.350;17.056;2023-08-12T11:01:08;4.10;;;1.83;;
68432;SDS011;55412;51.350;17.056;2023-08-12T11:03:43;4.18;;;1.60;;
68432;SDS011;55412;51.350;17.056;2023-08-12T11:06:11;4.88;;;2.42;;
68432;SDS011;55412;51.350;17.056;2023-08-12T11:08:45;6.72;;;1.60;;
68432;SDS011;55412;51.350;17.056;2023-08-12T11:11:19;5.97;;;2.25;;
68432;SDS011;55412;51.350;17.056;2023-08-12T11:13:58;3.97;;;1.80;;
68432;SDS011;55412;51.350;17.056;2023-08-12T11:16:31;4.95;;;1.98;;
68432;SDS011;55412;51.350;17.056;2023-08-12T11:19:02;4.95;;;1.63;;
68432;SDS011;55412;51.350;17.056;2023-08-12T11:21:29;6.68;;;1.85;;
68432;SDS011;55412;51.350;17.056;2023-08-12T11:23:55;4.53;;;2.08;;
68432;SDS011;55412;51.350;17.056;2023-08-12T11:26:25;6.03;;;1.70;;
68432;SDS011;55412;51.350;17.056;2023-08-12T11:28:53;5.13;;;1.50;;
68432;SDS011;55412;51.350;17.056;2023-08-12T11:31:19;6.13;;;2.03;;
68432;SDS011;55412;51.350;17.056;2023-08-12T11:33:55;4.75;;;1.25;;
68432;SDS011;55412;51.350;17.056;2023-08-12T11:36:22;6.25;;;1.92;;
68432;SDS011;55412;51.350;17.056;2023-08-12T11:38:48;6.53;;;1.60;;
68432;SDS011;55412;51.350;17.056;2023-08-12T11:41:17;4.88;;;1.88;;
68432;SDS011;55412;51.350;17.056;2023-08-12T11:43:43;4.28;;;2.20;;
68432;SDS011;55412;51.350;17.056;2023-08-12T11:46:09;5.93;;;1.95;;
68432;SDS011;55412;51.350;17.056;2023-08-12T11:48:36;5.53;;;1.80;;
68432;SDS011;55412;51.350;17.056;2023-08-12T11:51:02;4.27;;;1.70;;
68432;SDS011;55412;51.350;17.056;2023-08-12T11:53:31;4.15;;;1.85;;
68432;SDS011;55412;51.350;17.056;2023-08-12T11:55:57;5.00;;;2.20;;
68432;SDS011;55412;51.350;17.056;2023-08-12T11:58:24;5.10;;;2.22;;
68432;SDS011;55412;51.350;17.056;2023-08-12T12:00:50;5.50;;;2.10;;
68432;SDS011;55412;51.350;17.056;2023-08-12T12:03:16;4.80;;;1.63;;
68432;SDS011;55412;51.350;17.056;2023-08-12T12:05:45;5.18;;;2.00;;
68432;SDS011;55412;51.350;17.056;2023-08-12T12:08:13;4.53;;;1.83;;
68432;SDS011;55412;51.350;17.056;2023-08-12T12:10:39;4.15;;;2.10;;
68432;SDS011;55412;51.350;17.056;2023-08-12T12:13:06;4.65;;;2.35;;
68432;SDS011;55412;51.350;17.056;2023-08-12T12:15:42;6.03;;;1.83;;
68432;SDS011;55412;51.350;17.056;2023-08-12T12:18:12;3.63;;;1.80;;
68432;SDS011;55412;51.350;17.056;2023-08-12T12:20:58;4.10;;;1.70;;
68432;SDS011;55412;51.350;17.056;2023-08-12T12:23:28;4.15;;;1.75;;
68432;SDS011;55412;51.350;17.056;2023-08-12T12:25:58;3.70;;;1.33;;
68432;SDS011;55412;51.350;17.056;2023-08-12T12:28:29;4.07;;;1.93;;
68432;SDS011;55412;51.350;17.056;2023-08-12T12:30:57;4.05;;;1.73;;
68432;SDS011;55412;51.350;17.056;2023-08-12T12:33:23;8.30;;;1.85;;
68432;SDS011;55412;51.350;17.056;2023-08-12T12:35:49;3.33;;;1.60;;
68432;SDS011;55412;51.350;17.056;2023-08-12T12:38:15;3.50;;;1.40;;
68432;SDS011;55412;51.350;17.056;2023-08-12T12:40:41;5.40;;;2.30;;
68432;SDS011;55412;51.350;17.056;2023-08-12T12:43:07;3.78;;;1.67;;
68432;SDS011;55412;51.350;17.056;2023-08-12T12:45:33;4.63;;;2.00;;
68432;SDS011;55412;51.350;17.056;2023-08-12T12:48:00;5.95;;;1.95;;
68432;SDS011;55412;51.350;17.056;2023-08-12T12:50:26;7.35;;;2.50;;
68432;SDS011;55412;51.350;17.056;2023-08-12T12:52:52;4.67;;;1.30;;
68432;SDS011;55412;51.350;17.056;2023-08-12T12:55:18;5.63;;;1.85;;
68432;SDS011;55412;51.350;17.056;2023-08-12T12:57:45;5.32;;;1.73;;
68432;SDS011;55412;51.350;17.056;2023-08-12T13:00:12;9.20;;;1.98;;
68432;SDS011;55412;51.350;17.056;2023-08-12T13:02:38;3.78;;;1.63;;
68432;SDS011;55412;51.350;17.056;2023-08-12T13:05:07;9.00;;;2.03;;
68432;SDS011;55412;51.350;17.056;2023-08-12T13:07:33;5.65;;;1.90;;
68432;SDS011;55412;51.350;17.056;2023-08-12T13:10:00;3.42;;;1.70;;
68432;SDS011;55412;51.350;17.056;2023-08-12T13:12:26;3.58;;;1.70;;
68432;SDS011;55412;51.350;17.056;2023-08-12T13:14:52;4.55;;;1.90;;
68432;SDS011;55412;51.350;17.056;2023-08-12T13:17:18;4.07;;;1.47;;
68432;SDS011;55412;51.350;17.056;2023-08-12T13:19:44;4.85;;;1.90;;
68432;SDS011;55412;51.350;17.056;2023-08-12T13:22:10;5.88;;;1.63;;
68432;SDS011;55412;51.350;17.056;2023-08-12T13:24:40;5.57;;;1.90;;
68432;SDS011;55412;51.350;17.056;2023-08-12T13:27:06;7.15;;;2.03;;
68432;SDS011;55412;51.350;17.056;2023-08-12T13:29:33;5.10;;;1.43;;
68432;SDS011;55412;51.350;17.056;2023-08-12T13:31:59;4.18;;;1.65;;
68432;SDS011;55412;51.350;17.056;2023-08-12T13:34:25;4.38;;;1.60;;
68432;SDS011;55412;51.350;17.056;2023-08-12T13:36:51;3.80;;;1.45;;
68432;SDS011;55412;51.350;17.056;2023-08-12T13:39:18;4.88;;;1.60;;
68432;SDS011;55412;51.350;17.056;2023-08-12T13:41:45;3.57;;;1.40;;
68432;SDS011;55412;51.350;17.056;2023-08-12T13:44:12;3.30;;;1.30;;
68432;SDS011;55412;51.350;17.056;2023-08-12T13:46:39;3.30;;;1.80;;
68432;SDS011;55412;51.350;17.056;2023-08-12T13:49:05;3.63;;;1.55;;
68432;SDS011;55412;51.350;17.056;2023-08-12T13:51:31;3.97;;;1.92;;
68432;SDS011;55412;51.350;17.056;2023-08-12T13:53:57;4.63;;;1.30;;
68432;SDS011;55412;51.350;17.056;2023-08-12T13:56:23;3.75;;;1.30;;
68432;SDS011;55412;51.350;17.056;2023-08-12T13:58:49;4.15;;;1.83;;
68432;SDS011;55412;51.350;17.056;2023-08-12T14:01:15;3.45;;;1.35;;
68432;SDS011;55412;51.350;17.056;2023-08-12T14:03:42;3.45;;;1.42;;
68432;SDS011;55412;51.350;17.056;2023-08-12T14:06:08;4.90;;;1.43;;
68432;SDS011;55412;51.350;17.056;2023-08-12T14:08:34;6.35;;;1.27;;
68432;SDS011;55412;51.350;17.056;2023-08-12T14:11:00;3.35;;;1.80;;
68432;SDS011;55412;51.350;17.056;2023-08-12T14:13:26;3.50;;;1.30;;
68432;SDS011;55412;51.350;17.056;2023-08-12T14:15:53;6.22;;;1.63;;
68432;SDS011;55412;51.350;17.056;2023-08-12T14:18:19;8.03;;;1.77;;
68432;SDS011;55412;51.350;17.056;2023-08-12T14:20:45;7.75;;;1.67;;
68432;SDS011;55412;51.350;17.056;2023-08-12T14:23:11;3.58;;;2.17;;
68432;SDS011;55412;51.350;17.056;2023-08-12T14:25:38;4.07;;;1.60;;
68432;SDS011;55412;51.350;17.056;2023-08-12T14:28:04;3.88;;;1.65;;
68432;SDS011;55412;51.350;17.056;2023-08-12T14:30:31;4.70;;;1.60;;
68432;SDS011;55412;51.350;17.056;2023-08-12T14:32:57;3.92;;;1.65;;
68432;SDS011;55412;51.350;17.056;2023-08-12T14:35:24;5.18;;;1.88;;
68432;SDS011;55412;51.350;17.056;2023-08-12T14:37:50;3.75;;;1.23;;
68432;SDS011;55412;51.350;17.056;2023-08-12T14:40:16;5.43;;;1.58;;
68432;SDS011;55412;51.350;17.056;2023-08-12T14:42:42;5.40;;;1.47;;
68432;SDS011;55412;51.350;17.056;2023-08-12T14:45:08;4.40;;;1.90;;
68432;SDS011;55412;51.350;17.056;2023-08-12T14:47:35;6.45;;;1.60;;